createdAt,value
2018-06-10T00:01:47.220Z,5.37
2018-06-10T00:04:15.865Z,5.50
2018-06-10T00:06:44.456Z,5.55
2018-06-10T00:09:13.323Z,5.30
2018-06-10T00:11:41.953Z,4.83
2018-06-10T00:14:11.439Z,4.62
2018-06-10T00:16:40.050Z,5.10
2018-06-10T00:19:08.904Z,5.08
2018-06-10T00:21:37.526Z,5.22
2018-06-10T00:24:06.152Z,4.77
2018-06-10T00:26:34.717Z,5.20
2018-06-10T00:29:09.056Z,5.25
2018-06-10T00:31:37.703Z,5.53
2018-06-10T00:34:06.244Z,5.40
2018-06-10T00:36:34.771Z,5.12
2018-06-10T00:39:06.339Z,5.23
2018-06-10T00:41:35.701Z,5.40
2018-06-10T00:44:04.429Z,4.83
2018-06-10T00:46:33.316Z,5.43
2018-06-10T00:49:01.967Z,5.78
2018-06-10T00:51:30.545Z,5.22
2018-06-10T00:53:59.210Z,5.67
2018-06-10T00:56:39.440Z,5.33
2018-06-10T00:59:08.030Z,5.70
2018-06-10T01:01:36.615Z,5.47
2018-06-10T01:04:05.307Z,5.80
2018-06-10T01:06:34.455Z,6.05
2018-06-10T01:09:03.233Z,5.97
2018-06-10T01:11:31.924Z,5.97
2018-06-10T01:14:00.494Z,5.72
2018-06-10T01:16:30.138Z,5.50
2018-06-10T01:18:59.600Z,5.60
2018-06-10T01:21:28.156Z,5.35
2018-06-10T01:23:57.602Z,5.60
2018-06-10T01:26:31.481Z,5.30
2018-06-10T01:29:00.137Z,5.42
2018-06-10T01:31:28.630Z,5.90
2018-06-10T01:33:57.191Z,5.40
2018-06-10T01:36:26.313Z,5.80
2018-06-10T01:38:54.916Z,5.85
2018-06-10T01:41:23.599Z,6.08
2018-06-10T01:43:52.268Z,5.50
2018-06-10T01:46:20.885Z,5.83
2018-06-10T01:48:49.513Z,5.58
2018-06-10T01:51:18.169Z,6.03
2018-06-10T01:53:46.735Z,6.10
2018-06-10T01:56:15.330Z,6.00
2018-06-10T01:58:44.329Z,6.05
2018-06-10T02:01:13.118Z,5.80
2018-06-10T02:03:41.737Z,5.45
2018-06-10T02:06:10.296Z,5.55
2018-06-10T02:08:38.920Z,5.42
2018-06-10T02:11:07.479Z,5.90
2018-06-10T02:13:36.083Z,6.20
2018-06-10T02:16:04.616Z,5.80
2018-06-10T02:18:33.160Z,5.70
2018-06-10T02:21:01.750Z,6.10
2018-06-10T02:23:30.408Z,5.47
2018-06-10T02:25:58.988Z,6.15
2018-06-10T02:28:27.558Z,6.12
2018-06-10T02:30:56.192Z,5.95
2018-06-10T02:33:24.836Z,5.70
2018-06-10T02:35:54.022Z,5.87
2018-06-10T02:38:22.633Z,5.65
2018-06-10T02:40:51.196Z,5.75
2018-06-10T02:43:19.754Z,5.53
2018-06-10T02:45:48.355Z,6.10
2018-06-10T02:48:16.979Z,6.20
2018-06-10T02:50:45.557Z,5.60
2018-06-10T02:53:14.148Z,6.25
2018-06-10T02:55:42.722Z,6.25
2018-06-10T02:58:11.399Z,5.92
2018-06-10T03:00:39.912Z,5.90
2018-06-10T03:03:09.393Z,5.70
2018-06-10T03:05:37.953Z,6.10
2018-06-10T03:08:06.630Z,6.40
2018-06-10T03:10:35.246Z,5.90
2018-06-10T03:13:04.751Z,5.95
2018-06-10T03:15:34.445Z,6.08
2018-06-10T03:18:03.057Z,6.45
2018-06-10T03:20:31.709Z,6.42
2018-06-10T03:23:00.270Z,6.50
2018-06-10T03:25:28.939Z,6.40
2018-06-10T03:27:58.277Z,6.23
2018-06-10T03:30:27.397Z,6.20
2018-06-10T03:32:56.051Z,6.08
2018-06-10T03:35:25.423Z,6.17
2018-06-10T03:37:54.056Z,6.33
2018-06-10T03:40:22.631Z,6.20
2018-06-10T03:42:51.199Z,6.22
2018-06-10T03:45:20.073Z,6.80
2018-06-10T03:47:48.981Z,6.12
2018-06-10T03:50:17.495Z,6.40
2018-06-10T03:52:46.084Z,6.97
2018-06-10T03:55:14.641Z,7.00
2018-06-10T03:57:43.286Z,6.75
2018-06-10T04:00:12.466Z,6.42
2018-06-10T04:02:41.105Z,6.78
2018-06-10T04:05:09.686Z,6.87
2018-06-10T04:07:38.266Z,6.75
2018-06-10T04:10:07.533Z,6.85
2018-06-10T04:12:36.178Z,6.80
2018-06-10T04:15:04.755Z,6.83
2018-06-10T04:17:33.306Z,6.30
2018-06-10T04:20:01.901Z,6.87
2018-06-10T04:22:30.626Z,6.47
2018-06-10T04:24:59.226Z,6.37
2018-06-10T04:27:27.735Z,7.00
2018-06-10T04:29:56.353Z,7.10
2018-06-10T04:32:24.968Z,6.78
2018-06-10T04:34:53.562Z,6.67
2018-06-10T04:37:24.497Z,7.15
2018-06-10T04:39:53.274Z,6.67
2018-06-10T04:42:21.888Z,6.80
2018-06-10T04:44:50.618Z,7.03
2018-06-10T04:47:19.156Z,6.92
2018-06-10T04:49:49.144Z,6.93
2018-06-10T04:52:17.684Z,6.80
2018-06-10T04:54:46.247Z,7.33
2018-06-10T04:57:14.822Z,7.08
2018-06-10T04:59:43.528Z,6.60
2018-06-10T05:02:12.279Z,6.50
2018-06-10T05:04:41.160Z,6.33
2018-06-10T05:07:10.516Z,6.53
2018-06-10T05:09:39.062Z,5.97
2018-06-10T05:12:07.582Z,6.47
2018-06-10T05:14:36.157Z,6.42
2018-06-10T05:17:04.945Z,6.70
2018-06-10T05:19:33.650Z,6.17
2018-06-10T05:22:02.999Z,6.10
2018-06-10T05:24:31.585Z,5.83
2018-06-10T05:27:00.293Z,6.03
2018-06-10T05:29:29.200Z,6.00
2018-06-10T05:31:57.833Z,5.75
2018-06-10T05:34:26.817Z,5.80
2018-06-10T05:36:55.758Z,5.60
2018-06-10T05:39:24.356Z,5.53
2018-06-10T05:41:52.883Z,5.62
2018-06-10T05:44:21.362Z,5.65
2018-06-10T05:46:50.223Z,5.47
2018-06-10T05:49:18.780Z,5.65
2018-06-10T05:51:47.389Z,5.45
2018-06-10T05:54:15.976Z,5.10
2018-06-10T05:56:44.661Z,5.25
2018-06-10T05:59:13.454Z,5.60
2018-06-10T06:01:42.033Z,5.30
2018-06-10T06:04:10.594Z,5.30
2018-06-10T06:06:39.691Z,5.10
2018-06-10T06:09:08.678Z,4.72
2018-06-10T06:11:37.230Z,4.97
2018-06-10T06:14:05.847Z,5.10
2018-06-10T06:16:34.533Z,4.78
2018-06-10T06:19:03.151Z,4.93
2018-06-10T06:21:31.745Z,4.90
2018-06-10T06:24:00.498Z,4.67
2018-06-10T06:26:29.171Z,4.63
2018-06-10T06:28:57.840Z,4.80
2018-06-10T06:31:26.362Z,4.50
2018-06-10T06:33:55.137Z,4.87
2018-06-10T06:36:23.717Z,4.58
2018-06-10T06:38:52.293Z,4.72
2018-06-10T06:41:20.897Z,4.40
2018-06-10T06:43:49.826Z,4.70
2018-06-10T06:46:18.520Z,4.75
2018-06-10T06:48:47.125Z,4.75
2018-06-10T06:51:15.743Z,4.70
2018-06-10T06:53:44.830Z,4.50
2018-06-10T06:56:14.943Z,4.60
2018-06-10T06:58:43.528Z,4.87
2018-06-10T07:01:12.098Z,4.53
2018-06-10T07:03:41.450Z,4.08
2018-06-10T07:06:09.904Z,4.83
2018-06-10T07:08:39.803Z,4.28
2018-06-10T07:11:09.004Z,4.55
2018-06-10T07:13:37.665Z,4.40
2018-06-10T07:16:06.270Z,4.33
2018-06-10T07:18:34.856Z,4.37
2018-06-10T07:21:03.444Z,4.12
2018-06-10T07:23:32.738Z,4.12
2018-06-10T07:26:01.378Z,3.87
2018-06-10T07:28:30.183Z,4.20
2018-06-10T07:30:58.838Z,4.05
2018-06-10T07:33:27.523Z,4.47
2018-06-10T07:35:56.069Z,4.33
2018-06-10T07:38:24.672Z,4.40
2018-06-10T07:40:53.370Z,4.67
2018-06-10T07:43:22.394Z,4.55
2018-06-10T07:45:50.908Z,4.67
2018-06-10T07:48:19.577Z,4.20
2018-06-10T07:50:48.171Z,4.50
2018-06-10T07:53:16.937Z,3.73
2018-06-10T07:55:48.672Z,3.90
2018-06-10T07:58:17.840Z,3.60
2018-06-10T08:00:46.445Z,3.13
2018-06-10T08:03:15.336Z,3.50
2018-06-10T08:05:44.328Z,3.62
2018-06-10T08:08:12.858Z,3.70
2018-06-10T08:10:41.564Z,3.42
2018-06-10T08:13:10.203Z,3.50
2018-06-10T08:15:39.001Z,3.52
2018-06-10T08:18:07.690Z,3.45
2018-06-10T08:20:36.259Z,3.30
2018-06-10T08:23:05.079Z,3.42
2018-06-10T08:25:33.775Z,3.30
2018-06-10T08:28:02.393Z,3.00
2018-06-10T08:30:31.134Z,3.10
2018-06-10T08:33:04.052Z,3.00
2018-06-10T08:35:32.758Z,2.83
2018-06-10T08:38:01.870Z,2.90
2018-06-10T08:40:30.460Z,2.95
2018-06-10T08:42:59.055Z,3.08
2018-06-10T08:45:27.753Z,2.90
2018-06-10T08:47:56.381Z,3.02
2018-06-10T08:50:25.080Z,3.05
2018-06-10T08:52:53.648Z,2.92
2018-06-10T08:55:23.448Z,2.83
2018-06-10T08:57:52.135Z,2.85
2018-06-10T09:00:20.933Z,2.90
2018-06-10T09:02:50.913Z,2.98
2018-06-10T09:05:19.464Z,2.90
2018-06-10T09:07:48.354Z,2.98
2018-06-10T09:10:17.040Z,2.50
2018-06-10T09:12:45.641Z,2.87
2018-06-10T09:15:14.437Z,2.92
2018-06-10T09:17:43.483Z,2.87
2018-06-10T09:20:13.598Z,2.30
2018-06-10T09:22:42.731Z,2.30
2018-06-10T09:25:11.315Z,2.60
2018-06-10T09:27:42.577Z,2.35
2018-06-10T09:30:11.414Z,2.40
2018-06-10T09:32:40.082Z,2.50
2018-06-10T09:35:08.672Z,2.35
2018-06-10T09:37:37.364Z,2.20
2018-06-10T09:40:05.635Z,2.40
2018-06-10T09:42:34.605Z,2.37
2018-06-10T09:45:03.243Z,2.67
2018-06-10T09:47:31.922Z,2.50
2018-06-10T09:50:00.486Z,2.50
2018-06-10T09:52:29.058Z,1.90
2018-06-10T09:54:59.082Z,2.42
2018-06-10T09:57:27.845Z,2.17
2018-06-10T09:59:56.456Z,2.30
2018-06-10T10:02:25.956Z,2.60
2018-06-10T10:04:55.763Z,2.20
2018-06-10T10:07:24.241Z,2.20
2018-06-10T10:09:53.342Z,2.20
2018-06-10T10:12:21.888Z,2.27
2018-06-10T10:14:50.513Z,2.20
2018-06-10T10:17:18.944Z,1.90
2018-06-10T10:19:47.500Z,2.00
2018-06-10T10:22:16.009Z,2.10
2018-06-10T10:24:44.532Z,2.10
2018-06-10T10:27:13.860Z,2.20
2018-06-10T10:29:43.008Z,2.00
2018-06-10T10:32:11.716Z,2.22
2018-06-10T10:34:40.059Z,2.00
2018-06-10T10:37:10.715Z,2.10
2018-06-10T10:39:39.248Z,1.90
2018-06-10T10:42:07.972Z,1.90
2018-06-10T10:44:36.864Z,1.72
2018-06-10T10:47:05.400Z,2.05
2018-06-10T10:49:33.922Z,2.00
2018-06-10T10:52:02.425Z,2.08
2018-06-10T10:54:30.939Z,2.00
2018-06-10T10:56:59.438Z,2.17
2018-06-10T10:59:28.014Z,2.10
2018-06-10T11:01:56.687Z,2.27
2018-06-10T11:04:25.258Z,2.30
2018-06-10T11:06:53.746Z,2.22
2018-06-10T11:09:22.203Z,1.90
2018-06-10T11:11:51.034Z,2.00
2018-06-10T11:14:19.605Z,2.40
2018-06-10T11:16:48.131Z,2.15
2018-06-10T11:19:16.723Z,2.25
2018-06-10T11:21:45.890Z,2.33
2018-06-10T11:24:14.715Z,2.22
2018-06-10T11:26:43.551Z,2.20
2018-06-10T11:29:12.584Z,2.20
2018-06-10T11:31:41.203Z,2.30
2018-06-10T11:34:09.782Z,2.10
2018-06-10T11:36:38.516Z,2.62
2018-06-10T11:39:09.996Z,2.50
2018-06-10T11:41:38.553Z,2.33
2018-06-10T11:44:07.344Z,2.45
2018-06-10T11:46:35.926Z,2.50
2018-06-10T11:49:04.602Z,2.60
2018-06-10T11:51:33.315Z,2.50
2018-06-10T11:54:04.181Z,2.27
2018-06-10T11:56:33.069Z,2.60
2018-06-10T11:59:02.632Z,2.40
2018-06-10T12:01:31.714Z,2.55
2018-06-10T12:04:00.384Z,2.60
2018-06-10T12:06:33.230Z,2.60
2018-06-10T12:09:02.875Z,2.33
2018-06-10T12:11:31.948Z,2.37
2018-06-10T12:14:00.552Z,2.42
2018-06-10T12:16:29.230Z,2.30
2018-06-10T12:18:59.519Z,2.30
2018-06-10T12:21:28.557Z,3.47
2018-06-10T12:23:57.372Z,2.67
2018-06-10T12:26:26.106Z,2.50
2018-06-10T12:28:54.768Z,2.77
2018-06-10T12:31:23.388Z,2.52
2018-06-10T12:33:52.034Z,2.33
2018-06-10T12:36:21.040Z,2.70
2018-06-10T12:38:49.837Z,2.87
2018-06-10T12:41:18.554Z,2.80
2018-06-10T12:43:47.579Z,3.10
2018-06-10T12:46:16.076Z,2.57
2018-06-10T12:48:45.089Z,2.75
2018-06-10T12:51:13.721Z,2.55
2018-06-10T12:54:14.188Z,2.55
2018-06-10T12:56:42.677Z,2.15
2018-06-10T12:59:11.429Z,2.02
2018-06-10T13:01:40.030Z,2.30
2018-06-10T13:04:09.464Z,2.50
2018-06-10T13:06:38.037Z,2.98
2018-06-10T13:09:09.131Z,2.35
2018-06-10T13:11:37.932Z,2.40
2018-06-10T13:14:07.173Z,2.10
2018-06-10T13:16:35.757Z,2.30
2018-06-10T13:19:04.882Z,2.10
2018-06-10T13:21:33.407Z,2.30
2018-06-10T13:24:02.078Z,2.33
2018-06-10T13:26:30.517Z,2.00
2018-06-10T13:28:58.998Z,2.27
2018-06-10T13:31:28.119Z,1.85
2018-06-10T13:33:57.312Z,2.10
2018-06-10T13:36:25.839Z,2.50
2018-06-10T13:38:54.598Z,2.60
2018-06-10T13:41:23.015Z,2.75
2018-06-10T13:43:51.807Z,2.20
2018-06-10T13:46:20.952Z,2.27
2018-06-10T13:48:49.551Z,2.15
2018-06-10T13:51:18.045Z,2.50
2018-06-10T13:53:46.572Z,1.95
2018-06-10T13:56:15.238Z,1.90
2018-06-10T13:58:43.834Z,2.05
2018-06-10T14:01:12.922Z,2.12
2018-06-10T14:03:41.370Z,1.90
2018-06-10T14:06:10.026Z,1.97
2018-06-10T14:08:38.708Z,1.80
2018-06-10T14:11:07.216Z,1.60
2018-06-10T14:13:35.797Z,1.70
2018-06-10T14:16:04.351Z,1.97
2018-06-10T14:18:32.938Z,1.70
2018-06-10T14:21:01.776Z,1.50
2018-06-10T14:23:30.235Z,1.92
2018-06-10T14:25:58.908Z,1.87
2018-06-10T14:28:27.595Z,2.02
2018-06-10T14:30:56.218Z,1.77
2018-06-10T14:33:24.785Z,1.90
2018-06-10T14:35:53.344Z,1.65
2018-06-10T14:38:21.877Z,1.77
2018-06-10T14:40:50.659Z,1.87
2018-06-10T14:43:19.134Z,2.20
2018-06-10T14:45:47.615Z,2.02
2018-06-10T14:48:16.186Z,1.87
2018-06-10T14:50:44.657Z,1.82
2018-06-10T14:53:13.280Z,1.90
2018-06-10T14:55:42.055Z,1.92
2018-06-10T14:58:10.761Z,2.12
2018-06-10T15:00:39.617Z,1.92
2018-06-10T15:03:08.233Z,2.00
2018-06-10T15:05:36.889Z,2.00
2018-06-10T15:08:05.591Z,2.15
2018-06-10T15:10:35.100Z,2.10
2018-06-10T15:13:03.759Z,2.30
2018-06-10T15:15:32.985Z,2.10
2018-06-10T15:18:01.668Z,2.20
2018-06-10T15:20:30.363Z,2.20
2018-06-10T15:22:59.140Z,2.37
2018-06-10T15:25:27.763Z,2.40
2018-06-10T15:27:56.340Z,2.40
2018-06-10T15:30:24.982Z,2.72
2018-06-10T15:32:53.556Z,2.80
2018-06-10T15:35:22.223Z,2.50
2018-06-10T15:37:50.811Z,2.58
2018-06-10T15:40:19.408Z,2.58
2018-06-10T15:42:47.919Z,2.67
2018-06-10T15:45:16.511Z,2.70
2018-06-10T15:47:46.480Z,2.70
2018-06-10T15:50:16.091Z,2.42
2018-06-10T15:52:44.680Z,2.50
2018-06-10T15:55:13.586Z,2.52
2018-06-10T15:57:42.152Z,2.70
2018-06-10T16:00:10.736Z,2.97
2018-06-10T16:02:40.102Z,2.80
2018-06-10T16:05:08.756Z,2.73
2018-06-10T16:07:37.420Z,3.00
2018-06-10T16:10:06.071Z,2.55
2018-06-10T16:12:34.677Z,2.75
2018-06-10T16:15:03.241Z,2.83
2018-06-10T16:17:31.835Z,2.83
2018-06-10T16:20:00.532Z,2.62
2018-06-10T16:22:30.591Z,2.85
2018-06-10T16:24:59.188Z,2.83
2018-06-10T16:27:27.845Z,3.10
2018-06-10T16:29:56.566Z,2.67
2018-06-10T16:32:25.235Z,2.92
2018-06-10T16:34:54.152Z,2.97
2018-06-10T16:37:22.983Z,3.15
2018-06-10T16:39:51.654Z,2.93
2018-06-10T16:42:20.278Z,3.12
2018-06-10T16:44:48.902Z,2.98
2018-06-10T16:47:17.500Z,2.92
2018-06-10T16:49:46.135Z,3.10
2018-06-10T16:52:14.992Z,3.02
2018-06-10T16:54:43.559Z,3.05
2018-06-10T16:57:12.166Z,3.23
2018-06-10T16:59:40.763Z,3.20
2018-06-10T17:02:09.357Z,3.15
2018-06-10T17:04:37.945Z,3.22
2018-06-10T17:07:07.377Z,3.45
2018-06-10T17:09:35.977Z,2.92
2018-06-10T17:12:04.668Z,3.40
2018-06-10T17:14:33.270Z,3.27
2018-06-10T17:17:02.324Z,3.10
2018-06-10T17:19:30.924Z,3.25
2018-06-10T17:21:59.477Z,2.92
2018-06-10T17:24:29.126Z,3.00
2018-06-10T17:26:57.738Z,3.03
2018-06-10T17:29:26.701Z,3.10
2018-06-10T17:31:55.321Z,3.35
2018-06-10T17:34:24.368Z,3.35
2018-06-10T17:36:52.982Z,3.15
2018-06-10T17:39:21.519Z,3.27
2018-06-10T17:41:50.108Z,3.13
2018-06-10T17:44:18.768Z,3.30
2018-06-10T17:46:47.395Z,3.17
2018-06-10T17:49:16.038Z,3.27
2018-06-10T17:51:44.694Z,3.40
2018-06-10T17:54:13.374Z,3.12
2018-06-10T17:56:41.993Z,3.47
2018-06-10T17:59:10.667Z,3.23
2018-06-10T18:01:39.288Z,2.90
2018-06-10T18:04:07.861Z,3.02
2018-06-10T18:06:36.355Z,3.20
2018-06-10T18:09:07.486Z,3.00
2018-06-10T18:11:35.947Z,3.22
2018-06-10T18:14:04.736Z,3.40
2018-06-10T18:16:33.184Z,3.30
2018-06-10T18:19:01.761Z,3.25
2018-06-10T18:21:30.252Z,3.50
2018-06-10T18:23:58.761Z,3.47
2018-06-10T18:26:27.278Z,3.30
2018-06-10T18:28:55.732Z,3.40
2018-06-10T18:31:24.291Z,3.40
2018-06-10T18:33:52.853Z,3.50
2018-06-10T18:36:21.393Z,3.73
2018-06-10T18:38:49.985Z,3.80
2018-06-10T18:41:18.545Z,3.75
2018-06-10T18:43:47.107Z,3.70
2018-06-10T18:46:15.720Z,3.80
2018-06-10T18:48:44.236Z,4.13
2018-06-10T18:51:12.864Z,4.10
2018-06-10T18:53:41.482Z,4.12
2018-06-10T18:56:09.963Z,4.10
2018-06-10T18:58:38.513Z,3.70
2018-06-10T19:01:07.071Z,4.00
2018-06-10T19:03:35.574Z,4.00
2018-06-10T19:06:04.236Z,4.17
2018-06-10T19:08:32.842Z,3.90
2018-06-10T19:11:01.591Z,4.12
2018-06-10T19:13:30.236Z,3.67
2018-06-10T19:15:59.000Z,4.40
2018-06-10T19:18:27.494Z,4.15
2018-06-10T19:20:55.999Z,4.50
2018-06-10T19:23:24.439Z,4.12
2018-06-10T19:25:53.021Z,4.15
2018-06-10T19:28:21.592Z,4.10
2018-06-10T19:30:50.035Z,3.87
2018-06-10T19:33:18.567Z,4.17
2018-06-10T19:35:47.045Z,4.30
2018-06-10T19:38:15.688Z,4.07
2018-06-10T19:40:44.861Z,4.40
2018-06-10T19:43:13.421Z,4.00
2018-06-10T19:45:41.933Z,4.47
2018-06-10T19:48:10.525Z,4.10
2018-06-10T19:50:38.996Z,4.13
2018-06-10T19:53:07.548Z,4.30
2018-06-10T19:55:36.164Z,4.25
2018-06-10T19:58:04.764Z,4.22
2018-06-10T20:00:33.321Z,4.27
2018-06-10T20:03:01.950Z,4.45
2018-06-10T20:05:31.561Z,4.00
2018-06-10T20:08:00.159Z,4.47
2018-06-10T20:10:28.982Z,4.53
2018-06-10T20:12:57.581Z,4.50
2018-06-10T20:15:26.392Z,4.20
2018-06-10T20:17:55.501Z,4.35
2018-06-10T20:20:24.488Z,4.42
2018-06-10T20:22:53.057Z,4.40
2018-06-10T20:25:21.776Z,4.40
2018-06-10T20:27:50.444Z,4.15
2018-06-10T20:30:19.057Z,4.53
2018-06-10T20:32:48.202Z,3.95
2018-06-10T20:35:16.900Z,4.28
2018-06-10T20:37:46.403Z,4.53
2018-06-10T20:40:15.305Z,4.63
2018-06-10T20:42:43.849Z,4.60
2018-06-10T20:45:12.509Z,4.30
2018-06-10T20:47:40.779Z,4.50
2018-06-10T20:50:10.201Z,4.50
2018-06-10T20:52:38.866Z,4.85
2018-06-10T20:55:07.433Z,4.80
2018-06-10T20:57:36.085Z,4.73
2018-06-10T21:00:05.118Z,4.65
2018-06-10T21:02:33.723Z,4.58
2018-06-10T21:05:04.083Z,4.58
2018-06-10T21:07:32.978Z,4.37
2018-06-10T21:10:01.562Z,4.75
2018-06-10T21:12:30.287Z,4.40
2018-06-10T21:14:58.881Z,4.37
2018-06-10T21:17:27.784Z,4.62
2018-06-10T21:19:56.369Z,4.10
2018-06-10T21:22:24.971Z,4.20
2018-06-10T21:24:53.804Z,4.22
2018-06-10T21:27:22.399Z,4.83
2018-06-10T21:29:50.971Z,4.12
2018-06-10T21:32:20.246Z,4.60
2018-06-10T21:34:49.167Z,4.13
2018-06-10T21:37:19.489Z,4.08
2018-06-10T21:39:48.145Z,3.77
2018-06-10T21:42:16.861Z,4.40
2018-06-10T21:44:45.462Z,4.15
2018-06-10T21:47:14.017Z,4.10
2018-06-10T21:49:42.583Z,4.00
2018-06-10T21:52:12.012Z,4.25
2018-06-10T21:54:40.647Z,4.20
2018-06-10T21:57:09.483Z,4.55
2018-06-10T21:59:38.049Z,3.95
2018-06-10T22:02:06.905Z,4.50
2018-06-10T22:04:35.606Z,3.90
2018-06-10T22:07:04.152Z,4.17
2018-06-10T22:09:32.645Z,4.17
2018-06-10T22:12:01.475Z,3.90
2018-06-10T22:14:30.139Z,4.20
2018-06-10T22:16:58.675Z,4.40
2018-06-10T22:19:27.229Z,4.03
2018-06-10T22:21:56.111Z,4.50
2018-06-10T22:24:24.649Z,4.30
2018-06-10T22:26:53.208Z,4.17
2018-06-10T22:29:21.840Z,4.00
2018-06-10T22:31:50.157Z,3.87
2018-06-10T22:34:18.822Z,3.83
2018-06-10T22:36:47.492Z,3.83
2018-06-10T22:39:16.145Z,3.95
2018-06-10T22:41:45.189Z,3.77
2018-06-10T22:44:14.159Z,3.70
2018-06-10T22:46:42.712Z,3.80
2018-06-10T22:49:11.353Z,3.63
2018-06-10T22:51:40.587Z,3.80
2018-06-10T22:54:20.644Z,3.87
2018-06-10T22:56:49.500Z,3.65
2018-06-10T22:59:18.152Z,3.80
2018-06-10T23:01:46.704Z,3.75
2018-06-10T23:04:15.268Z,3.70
2018-06-10T23:06:44.926Z,3.70
2018-06-10T23:09:13.655Z,3.90
2018-06-10T23:11:42.364Z,3.60
2018-06-10T23:14:11.016Z,3.22
2018-06-10T23:16:39.596Z,3.43
2018-06-10T23:19:08.200Z,3.87
2018-06-10T23:21:36.934Z,3.37
2018-06-10T23:24:05.544Z,3.42
2018-06-10T23:26:34.204Z,3.25
2018-06-10T23:29:03.128Z,3.27
2018-06-10T23:31:31.684Z,3.20
2018-06-10T23:34:00.296Z,3.30
2018-06-10T23:36:28.917Z,3.57
2018-06-10T23:38:57.451Z,3.70
2018-06-10T23:41:26.046Z,3.22
2018-06-10T23:43:56.467Z,3.72
2018-06-10T23:46:25.045Z,3.20
2018-06-10T23:48:53.907Z,3.30
2018-06-10T23:51:22.545Z,3.40
2018-06-10T23:53:52.562Z,3.30
2018-06-10T23:56:21.150Z,3.50
2018-06-10T23:58:50.002Z,3.80
